createdAt,value
2023-03-30T00:01:15.070Z,19.47
2023-03-30T00:03:44.895Z,19.68
2023-03-30T00:06:21.208Z,19.59
2023-03-30T00:08:49.574Z,19.59
2023-03-30T00:11:19.975Z,19.66
2023-03-30T00:13:48.118Z,19.82
2023-03-30T00:16:17.054Z,19.79
2023-03-30T00:18:45.795Z,20.07
2023-03-30T00:21:18.465Z,20.45
2023-03-30T00:23:48.222Z,20.40
2023-03-30T00:26:17.398Z,20.19
2023-03-30T00:28:47.315Z,20.44
2023-03-30T00:31:16.680Z,20.79
2023-03-30T00:33:46.826Z,20.56
2023-03-30T00:36:17.262Z,20.71
2023-03-30T00:38:48.496Z,20.98
2023-03-30T00:41:17.869Z,21.08
2023-03-30T00:44:01.794Z,20.30
2023-03-30T00:46:31.150Z,21.07
2023-03-30T00:49:04.151Z,20.60
2023-03-30T00:51:34.040Z,20.52
2023-03-30T00:54:07.276Z,20.67
2023-03-30T00:56:36.051Z,20.72
2023-03-30T00:59:06.425Z,20.52
2023-03-30T01:01:39.050Z,21.06
2023-03-30T01:04:10.085Z,20.57
2023-03-30T01:06:40.305Z,20.58
2023-03-30T01:09:09.536Z,20.41
2023-03-30T01:11:37.791Z,20.22
2023-03-30T01:14:09.713Z,20.16
2023-03-30T01:16:43.477Z,19.75
2023-03-30T01:19:40.396Z,19.36
2023-03-30T01:22:28.832Z,19.68
2023-03-30T01:25:20.992Z,19.60
2023-03-30T01:28:22.431Z,19.55
2023-03-30T01:31:21.099Z,18.95
2023-03-30T01:34:02.262Z,19.50
2023-03-30T01:36:58.036Z,19.49
2023-03-30T01:39:36.520Z,19.91
2023-03-30T01:42:13.067Z,19.78
2023-03-30T01:44:48.148Z,19.55
2023-03-30T01:47:21.123Z,19.66
2023-03-30T01:49:57.370Z,19.40
2023-03-30T01:52:30.517Z,20.12
2023-03-30T01:55:04.879Z,19.69
2023-03-30T01:57:37.119Z,20.04
2023-03-30T02:00:14.377Z,20.15
2023-03-30T02:02:45.927Z,20.26
2023-03-30T02:05:18.026Z,20.33
2023-03-30T02:07:51.078Z,20.04
2023-03-30T02:10:22.908Z,19.65
2023-03-30T02:12:52.569Z,19.66
2023-03-30T02:15:21.309Z,19.79
2023-03-30T02:17:50.024Z,19.86
2023-03-30T02:20:19.068Z,19.87
2023-03-30T02:22:47.802Z,19.83
2023-03-30T02:25:16.220Z,19.73
2023-03-30T02:27:46.840Z,19.76
2023-03-30T02:30:15.866Z,19.68
2023-03-30T02:32:46.984Z,19.58
2023-03-30T02:35:22.508Z,19.21
2023-03-30T02:38:13.018Z,18.87
2023-03-30T02:40:44.854Z,19.51
2023-03-30T02:43:25.148Z,19.29
2023-03-30T02:45:55.131Z,19.63
2023-03-30T02:48:33.292Z,18.96
2023-03-30T02:51:19.181Z,19.07
2023-03-30T02:53:50.359Z,19.37
2023-03-30T02:56:25.273Z,19.11
2023-03-30T02:58:57.666Z,19.31
2023-03-30T03:01:29.984Z,19.38
2023-03-30T03:03:59.429Z,19.53
2023-03-30T03:06:28.260Z,19.62
2023-03-30T03:08:57.589Z,19.76
2023-03-30T03:11:26.098Z,19.83
2023-03-30T03:13:56.628Z,19.51
2023-03-30T03:16:25.075Z,19.88
2023-03-30T03:18:53.744Z,19.57
2023-03-30T03:21:21.941Z,19.60
2023-03-30T03:23:50.576Z,19.47
2023-03-30T03:26:18.850Z,19.93
2023-03-30T03:28:47.390Z,19.73
2023-03-30T03:31:17.063Z,19.79
2023-03-30T03:33:46.106Z,19.73
2023-03-30T03:36:14.391Z,19.70
2023-03-30T03:38:42.992Z,19.89
2023-03-30T03:41:11.282Z,20.26
2023-03-30T03:43:39.732Z,20.07
2023-03-30T03:46:08.204Z,20.15
2023-03-30T03:48:38.543Z,19.96
2023-03-30T03:51:07.174Z,19.97
2023-03-30T03:53:35.814Z,20.18
2023-03-30T03:56:04.165Z,20.08
2023-03-30T03:58:32.741Z,19.94
2023-03-30T04:01:02.041Z,19.99
2023-03-30T04:03:30.865Z,20.40
2023-03-30T04:06:03.695Z,19.77
2023-03-30T04:08:32.237Z,20.27
2023-03-30T04:11:08.006Z,19.88
2023-03-30T04:13:36.860Z,20.70
2023-03-30T04:16:05.477Z,20.26
2023-03-30T04:18:34.698Z,20.47
2023-03-30T04:21:05.788Z,20.35
2023-03-30T04:23:35.026Z,20.52
2023-03-30T04:26:04.664Z,20.95
2023-03-30T04:28:34.461Z,20.83
2023-03-30T04:31:04.510Z,20.83
2023-03-30T04:33:34.965Z,20.94
2023-03-30T04:36:04.780Z,20.69
2023-03-30T04:38:33.379Z,20.90
2023-03-30T04:41:02.429Z,20.83
2023-03-30T04:43:31.505Z,21.23
2023-03-30T04:45:59.900Z,21.15
2023-03-30T04:48:28.551Z,21.28
2023-03-30T04:50:59.129Z,20.88
2023-03-30T04:53:29.229Z,20.84
2023-03-30T04:55:57.443Z,21.01
2023-03-30T04:58:26.140Z,21.18
2023-03-30T05:00:54.773Z,21.06
2023-03-30T05:03:23.677Z,21.48
2023-03-30T05:05:52.099Z,21.08
2023-03-30T05:08:20.915Z,21.39
2023-03-30T05:10:50.800Z,21.12
2023-03-30T05:13:19.547Z,21.16
2023-03-30T05:15:54.319Z,20.75
2023-03-30T05:18:22.966Z,20.77
2023-03-30T05:20:51.557Z,20.81
2023-03-30T05:23:20.037Z,20.79
2023-03-30T05:25:51.634Z,20.76
2023-03-30T05:28:21.088Z,20.79
2023-03-30T05:30:54.764Z,20.12
2023-03-30T05:33:24.672Z,20.63
2023-03-30T05:35:56.616Z,20.58
2023-03-30T05:38:28.922Z,20.69
2023-03-30T05:40:59.640Z,20.60
2023-03-30T05:43:28.833Z,20.77
2023-03-30T05:45:58.065Z,20.59
2023-03-30T05:48:27.085Z,20.57
2023-03-30T05:50:55.939Z,20.48
2023-03-30T05:53:25.322Z,20.56
2023-03-30T05:55:54.009Z,20.25
2023-03-30T05:58:24.880Z,19.77
2023-03-30T06:00:54.488Z,19.77
2023-03-30T06:03:23.934Z,19.73
2023-03-30T06:05:54.624Z,19.57
2023-03-30T06:08:23.847Z,19.49
2023-03-30T06:10:56.585Z,19.19
2023-03-30T06:13:27.523Z,19.43
2023-03-30T06:15:57.157Z,19.48
2023-03-30T06:18:26.589Z,19.69
2023-03-30T06:20:55.628Z,19.45
2023-03-30T06:23:25.262Z,19.48
2023-03-30T06:25:55.309Z,19.26
2023-03-30T06:28:25.267Z,18.97
2023-03-30T06:30:55.674Z,18.83
2023-03-30T06:33:25.736Z,18.88
2023-03-30T06:35:55.648Z,18.91
2023-03-30T06:38:25.041Z,18.66
2023-03-30T06:40:53.581Z,18.84
2023-03-30T06:43:24.080Z,18.64
2023-03-30T06:45:54.918Z,18.78
2023-03-30T06:48:25.150Z,18.51
2023-03-30T06:50:54.622Z,18.54
2023-03-30T06:53:23.709Z,18.35
2023-03-30T06:55:53.567Z,18.36
2023-03-30T06:58:22.905Z,18.10
2023-03-30T07:00:51.899Z,17.90
2023-03-30T07:03:22.109Z,18.03
2023-03-30T07:05:51.984Z,17.70
2023-03-30T07:08:21.608Z,17.76
2023-03-30T07:10:51.456Z,17.67
2023-03-30T07:13:19.764Z,17.75
2023-03-30T07:15:48.970Z,17.53
2023-03-30T07:18:17.761Z,17.57
2023-03-30T07:20:48.420Z,17.23
2023-03-30T07:23:16.794Z,17.01
2023-03-30T07:25:46.006Z,16.32
2023-03-30T07:28:15.352Z,15.02
2023-03-30T07:30:44.431Z,14.39
2023-03-30T07:33:12.980Z,13.73
2023-03-30T07:35:45.067Z,12.46
2023-03-30T07:38:15.625Z,12.00
2023-03-30T07:40:44.288Z,11.39
2023-03-30T07:43:12.756Z,10.55
2023-03-30T07:45:41.475Z,9.63
2023-03-30T07:48:10.257Z,9.22
2023-03-30T07:50:39.289Z,9.26
2023-03-30T07:53:08.431Z,8.62
2023-03-30T07:55:38.436Z,7.90
2023-03-30T07:58:07.961Z,7.19
2023-03-30T08:00:37.758Z,7.53
2023-03-30T08:03:06.537Z,7.25
2023-03-30T08:05:35.816Z,7.08
2023-03-30T08:08:04.454Z,7.08
2023-03-30T08:10:33.981Z,7.01
2023-03-30T08:13:04.810Z,7.58
2023-03-30T08:15:33.920Z,8.24
2023-03-30T08:18:06.898Z,8.57
2023-03-30T08:20:36.532Z,8.58
2023-03-30T08:23:05.447Z,8.77
2023-03-30T08:25:34.759Z,8.62
2023-03-30T08:28:05.934Z,8.10
2023-03-30T08:30:35.151Z,8.90
2023-03-30T08:33:04.044Z,9.26
2023-03-30T08:35:32.824Z,9.65
2023-03-30T08:38:01.277Z,9.92
2023-03-30T08:40:30.527Z,10.18
2023-03-30T08:43:11.600Z,10.17
2023-03-30T08:45:42.863Z,10.41
2023-03-30T08:48:17.160Z,10.11
2023-03-30T08:50:49.474Z,10.26
2023-03-30T08:53:17.992Z,10.36
2023-03-30T08:55:48.627Z,10.69
2023-03-30T08:58:25.121Z,10.21
2023-03-30T09:00:57.610Z,10.68
2023-03-30T09:03:29.539Z,10.73
2023-03-30T09:06:01.957Z,11.03
2023-03-30T09:08:32.267Z,10.72
2023-03-30T09:11:02.619Z,9.31
2023-03-30T09:13:35.157Z,8.14
2023-03-30T09:16:11.757Z,7.28
2023-03-30T09:18:45.370Z,6.42
2023-03-30T09:21:14.910Z,6.66
2023-03-30T09:23:44.358Z,6.19
2023-03-30T09:26:20.724Z,6.04
2023-03-30T09:28:57.805Z,5.53
2023-03-30T09:31:32.322Z,5.33
2023-03-30T09:34:07.894Z,4.69
2023-03-30T09:36:41.427Z,3.93
2023-03-30T09:39:19.893Z,3.66
2023-03-30T09:42:00.273Z,3.66
2023-03-30T09:44:37.564Z,3.85
2023-03-30T09:47:20.822Z,3.64
2023-03-30T09:49:50.162Z,3.96
2023-03-30T09:52:22.122Z,3.10
2023-03-30T09:54:51.351Z,3.51
2023-03-30T09:57:29.255Z,3.68
2023-03-30T10:00:01.093Z,4.74
2023-03-30T10:02:31.710Z,5.88
2023-03-30T10:05:03.655Z,7.00
2023-03-30T10:07:34.996Z,7.28
2023-03-30T10:10:15.330Z,7.87
2023-03-30T10:12:44.387Z,6.77
2023-03-30T10:15:19.760Z,5.66
2023-03-30T10:17:51.583Z,6.05
2023-03-30T10:20:27.033Z,4.92
2023-03-30T10:22:57.347Z,4.89
2023-03-30T10:25:29.782Z,5.76
2023-03-30T10:28:01.546Z,6.72
2023-03-30T10:30:33.051Z,6.39
2023-03-30T10:33:02.028Z,5.23
2023-03-30T10:35:35.982Z,4.94
2023-03-30T10:38:05.958Z,4.74
2023-03-30T10:40:36.892Z,4.86
2023-03-30T10:43:07.853Z,5.21
2023-03-30T10:45:40.926Z,5.44
2023-03-30T10:48:36.229Z,5.36
2023-03-30T10:51:12.290Z,4.77
2023-03-30T10:53:48.069Z,3.84
2023-03-30T10:56:24.281Z,4.24
2023-03-30T10:59:06.264Z,4.46
2023-03-30T11:01:43.986Z,4.66
2023-03-30T11:04:23.537Z,4.97
2023-03-30T11:06:54.709Z,4.94
2023-03-30T11:09:26.245Z,5.06
2023-03-30T11:11:57.746Z,4.85
2023-03-30T11:14:29.366Z,4.64
2023-03-30T11:17:02.007Z,4.50
2023-03-30T11:19:33.538Z,4.71
2023-03-30T11:22:06.829Z,4.17
2023-03-30T11:24:35.648Z,4.63
2023-03-30T11:27:06.927Z,6.04
2023-03-30T11:29:37.019Z,6.64
2023-03-30T11:32:17.872Z,8.17
2023-03-30T11:34:55.067Z,9.73
2023-03-30T11:37:30.005Z,10.94
2023-03-30T11:40:04.261Z,11.69
2023-03-30T11:42:33.606Z,12.18
2023-03-30T11:45:02.881Z,12.50
2023-03-30T11:47:46.887Z,12.25
2023-03-30T11:50:25.684Z,11.98
2023-03-30T11:53:01.231Z,11.62
2023-03-30T11:55:40.969Z,11.06
2023-03-30T11:58:16.055Z,11.59
2023-03-30T12:00:50.872Z,11.83
2023-03-30T12:03:37.570Z,12.27
2023-03-30T12:06:23.594Z,12.77
2023-03-30T12:09:02.981Z,12.80
2023-03-30T12:11:36.603Z,12.42
2023-03-30T12:14:13.869Z,12.72
2023-03-30T12:16:47.056Z,12.63
2023-03-30T12:19:18.913Z,12.67
2023-03-30T12:21:53.441Z,12.51
2023-03-30T12:24:24.992Z,13.11
2023-03-30T12:32:12.328Z,13.12
2023-03-30T12:34:45.192Z,13.69
2023-03-30T12:37:15.035Z,14.21
2023-03-30T12:39:49.143Z,14.11
2023-03-30T12:42:34.838Z,13.98
2023-03-30T12:45:37.544Z,14.06
2023-03-30T12:48:30.732Z,13.72
2023-03-30T12:51:09.174Z,14.59
2023-03-30T12:54:01.963Z,14.34
2023-03-30T12:56:38.593Z,15.00
2023-03-30T12:59:30.813Z,15.09
2023-03-30T13:02:05.732Z,15.46
2023-03-30T13:04:37.906Z,16.01
2023-03-30T13:07:08.982Z,15.74
2023-03-30T13:09:54.694Z,15.52
2023-03-30T13:12:32.590Z,15.52
2023-03-30T13:15:03.671Z,15.67
2023-03-30T13:17:46.990Z,14.64
2023-03-30T13:20:29.115Z,15.52
2023-03-30T13:23:22.818Z,15.64
2023-03-30T13:25:54.508Z,15.94
2023-03-30T13:28:48.816Z,15.52
2023-03-30T13:31:27.949Z,15.84
2023-03-30T13:34:01.683Z,16.43
2023-03-30T13:36:31.982Z,16.45
2023-03-30T13:39:07.693Z,16.47
2023-03-30T13:41:47.946Z,16.50
2023-03-30T13:44:34.158Z,16.55
2023-03-30T13:47:11.581Z,16.86
2023-03-30T13:49:47.973Z,17.07
2023-03-30T13:52:19.105Z,18.08
2023-03-30T13:54:49.265Z,18.37
2023-03-30T13:57:20.908Z,18.43
2023-03-30T13:59:52.488Z,17.84
2023-03-30T14:02:21.156Z,17.27
2023-03-30T14:04:50.890Z,18.16
2023-03-30T14:07:21.177Z,18.01
2023-03-30T14:10:08.702Z,17.64
2023-03-30T14:12:39.745Z,18.36
2023-03-30T14:15:18.166Z,18.23
2023-03-30T14:17:52.172Z,17.84
2023-03-30T14:20:29.867Z,18.61
2023-03-30T14:23:00.492Z,19.50
2023-03-30T14:25:33.471Z,18.91
2023-03-30T14:28:04.611Z,19.35
2023-03-30T14:30:34.553Z,18.35
2023-03-30T14:33:08.069Z,19.44
2023-03-30T14:35:41.382Z,20.01
2023-03-30T14:38:17.233Z,20.05
2023-03-30T14:40:48.068Z,19.65
2023-03-30T14:43:19.902Z,20.06
2023-03-30T14:45:48.655Z,21.04
2023-03-30T14:48:24.021Z,21.38
2023-03-30T14:50:52.563Z,22.19
2023-03-30T14:53:25.573Z,21.93
2023-03-30T14:55:57.346Z,22.89
2023-03-30T14:58:27.021Z,23.06
2023-03-30T15:00:58.892Z,22.50
2023-03-30T15:03:33.874Z,22.29
2023-03-30T15:06:04.223Z,22.89
2023-03-30T15:08:34.479Z,23.29
2023-03-30T15:11:09.199Z,23.17
2023-03-30T15:13:39.356Z,23.36
2023-03-30T15:16:08.580Z,23.58
2023-03-30T15:18:38.024Z,24.03
2023-03-30T15:21:09.936Z,23.84
2023-03-30T15:23:42.134Z,23.82
2023-03-30T15:26:13.454Z,24.17
2023-03-30T15:28:44.761Z,24.26
2023-03-30T15:31:16.496Z,24.70
2023-03-30T15:33:45.502Z,23.16
2023-03-30T15:36:15.803Z,24.30
2023-03-30T15:38:47.857Z,24.23
2023-03-30T15:41:19.244Z,24.45
2023-03-30T15:43:56.050Z,24.79
2023-03-30T15:46:25.189Z,24.99
2023-03-30T15:48:54.680Z,25.12
2023-03-30T15:51:27.979Z,24.29
2023-03-30T15:53:59.568Z,24.55
2023-03-30T15:56:32.846Z,24.54
2023-03-30T15:59:01.770Z,25.13
2023-03-30T16:01:43.453Z,24.70
2023-03-30T16:04:15.257Z,24.98
2023-03-30T16:06:46.727Z,25.67
2023-03-30T16:09:16.094Z,26.07
2023-03-30T16:11:47.120Z,25.92
2023-03-30T16:14:18.446Z,25.76
2023-03-30T16:16:47.071Z,26.02
2023-03-30T16:19:17.577Z,25.90
2023-03-30T16:21:46.342Z,26.08
2023-03-30T16:24:14.859Z,26.29
2023-03-30T16:26:46.866Z,26.54
2023-03-30T16:29:16.656Z,25.00
2023-03-30T16:31:45.313Z,26.45
2023-03-30T16:34:13.696Z,27.06
2023-03-30T16:36:44.210Z,27.50
2023-03-30T16:39:18.257Z,26.70
2023-03-30T16:41:49.682Z,26.76
2023-03-30T16:44:18.650Z,27.36
2023-03-30T16:46:47.682Z,27.69
2023-03-30T16:49:17.779Z,27.25
2023-03-30T16:51:46.683Z,27.54
2023-03-30T16:54:29.646Z,28.15
2023-03-30T16:57:02.432Z,27.49
2023-03-30T16:59:32.920Z,27.93
2023-03-30T17:02:03.228Z,28.17
2023-03-30T17:04:31.765Z,28.25
2023-03-30T17:07:00.976Z,28.35
2023-03-30T17:09:30.060Z,28.25
2023-03-30T17:11:58.836Z,28.29
2023-03-30T17:14:30.681Z,27.99
2023-03-30T17:16:59.496Z,28.56
2023-03-30T17:19:29.223Z,28.42
2023-03-30T17:21:58.076Z,28.58
2023-03-30T17:24:26.523Z,28.42
2023-03-30T17:26:56.316Z,28.39
2023-03-30T17:29:24.758Z,28.53
2023-03-30T17:31:55.015Z,28.14
2023-03-30T17:34:23.433Z,28.57
2023-03-30T17:36:51.985Z,28.71
2023-03-30T17:39:20.585Z,28.52
2023-03-30T17:41:49.384Z,28.34
2023-03-30T17:44:17.625Z,28.24
2023-03-30T17:46:46.371Z,28.23
2023-03-30T17:49:18.548Z,27.56
2023-03-30T17:51:47.281Z,28.43
2023-03-30T17:54:15.876Z,28.31
2023-03-30T17:56:44.813Z,28.54
2023-03-30T17:59:13.539Z,28.38
2023-03-30T18:01:42.343Z,28.11
2023-03-30T18:04:10.863Z,28.31
2023-03-30T18:06:41.842Z,27.88
2023-03-30T18:09:15.705Z,27.08
2023-03-30T18:11:44.552Z,27.95
2023-03-30T18:14:12.875Z,27.64
2023-03-30T18:16:43.805Z,27.53
2023-03-30T18:19:13.320Z,27.40
2023-03-30T18:21:43.508Z,26.94
2023-03-30T18:24:12.203Z,27.24
2023-03-30T18:26:43.112Z,26.99
2023-03-30T18:29:20.541Z,26.35
2023-03-30T18:31:49.514Z,27.46
2023-03-30T18:34:19.751Z,27.35
2023-03-30T18:36:50.130Z,26.84
2023-03-30T18:39:20.185Z,27.04
2023-03-30T18:41:49.121Z,27.01
2023-03-30T18:44:17.975Z,27.01
2023-03-30T18:46:48.299Z,26.83
2023-03-30T18:49:17.491Z,27.04
2023-03-30T18:51:46.475Z,27.34
2023-03-30T18:54:16.253Z,27.15
2023-03-30T18:56:46.118Z,26.96
2023-03-30T18:59:15.045Z,26.97
2023-03-30T19:01:46.005Z,26.91
2023-03-30T19:04:14.423Z,27.37
2023-03-30T19:06:44.618Z,27.31
2023-03-30T19:09:12.940Z,27.53
2023-03-30T19:11:43.150Z,27.38
2023-03-30T19:14:12.268Z,27.51
2023-03-30T19:16:42.121Z,27.70
2023-03-30T19:19:14.927Z,27.98
2023-03-30T19:21:46.723Z,27.79
2023-03-30T19:24:15.265Z,27.83
2023-03-30T19:26:45.479Z,27.79
2023-03-30T19:29:14.441Z,28.20
2023-03-30T19:31:43.221Z,27.86
2023-03-30T19:34:11.897Z,27.78
2023-03-30T19:36:40.742Z,28.26
2023-03-30T19:39:09.370Z,28.64
2023-03-30T19:41:38.133Z,29.03
2023-03-30T19:44:07.981Z,28.66
2023-03-30T19:46:37.970Z,29.74
2023-03-30T19:49:06.999Z,29.67
2023-03-30T19:51:35.693Z,29.54
2023-03-30T19:54:04.590Z,29.44
2023-03-30T19:56:33.482Z,29.37
2023-03-30T19:59:01.882Z,29.51
2023-03-30T20:01:32.073Z,28.83
2023-03-30T20:04:00.894Z,29.31
2023-03-30T20:06:29.595Z,29.01
2023-03-30T20:08:57.984Z,28.96
2023-03-30T20:11:26.687Z,28.84
2023-03-30T20:13:55.671Z,28.52
2023-03-30T20:16:26.179Z,28.69
2023-03-30T20:18:57.248Z,28.26
2023-03-30T20:21:27.252Z,26.93
2023-03-30T20:23:58.758Z,27.91
2023-03-30T20:26:27.809Z,28.21
2023-03-30T20:28:56.714Z,28.18
2023-03-30T20:31:25.826Z,28.40
2023-03-30T20:33:55.933Z,27.57
2023-03-30T20:36:26.069Z,27.84
2023-03-30T20:38:55.484Z,27.89
2023-03-30T20:41:25.053Z,27.65
2023-03-30T20:43:57.365Z,27.89
2023-03-30T20:46:35.571Z,27.93
2023-03-30T20:49:06.133Z,27.32
2023-03-30T20:51:35.199Z,27.90
2023-03-30T20:54:03.493Z,27.72
2023-03-30T20:56:32.766Z,27.56
2023-03-30T20:59:02.970Z,27.60
2023-03-30T21:01:32.088Z,27.80
2023-03-30T21:04:02.608Z,27.31
2023-03-30T21:06:33.461Z,27.09
2023-03-30T21:09:05.129Z,27.49
2023-03-30T21:11:38.836Z,28.17
2023-03-30T21:14:08.012Z,27.70
2023-03-30T21:16:38.203Z,27.78
2023-03-30T21:19:07.143Z,27.94
2023-03-30T21:21:39.063Z,27.17
2023-03-30T21:24:08.942Z,27.54
2023-03-30T21:26:38.182Z,27.64
2023-03-30T21:29:07.017Z,28.05
2023-03-30T21:31:35.654Z,27.80
2023-03-30T21:34:04.306Z,27.76
2023-03-30T21:36:32.980Z,27.60
2023-03-30T21:39:02.997Z,27.32
2023-03-30T21:41:31.749Z,27.64
2023-03-30T21:44:00.114Z,27.68
2023-03-30T21:46:29.302Z,27.44
2023-03-30T21:48:57.593Z,27.32
2023-03-30T21:51:28.174Z,27.09
2023-03-30T21:53:57.325Z,27.34
2023-03-30T21:56:29.898Z,27.30
2023-03-30T21:58:58.527Z,27.46
2023-03-30T22:01:27.513Z,27.49
2023-03-30T22:03:56.742Z,27.41
2023-03-30T22:06:25.871Z,27.04
2023-03-30T22:08:54.202Z,27.19
2023-03-30T22:11:24.043Z,26.71
2023-03-30T22:13:55.474Z,26.59
2023-03-30T22:16:25.970Z,26.83
2023-03-30T22:18:54.374Z,26.89
2023-03-30T22:21:25.091Z,26.84
2023-03-30T22:23:54.744Z,26.73
2023-03-30T22:26:23.575Z,26.82
2023-03-30T22:28:53.271Z,26.57
2023-03-30T22:31:22.134Z,26.73
2023-03-30T22:33:50.896Z,27.05
2023-03-30T22:36:21.579Z,26.86
2023-03-30T22:38:51.015Z,27.14
2023-03-30T22:41:24.360Z,26.93
2023-03-30T22:43:55.412Z,26.82
2023-03-30T22:46:24.739Z,26.81
2023-03-30T22:48:55.692Z,26.85
2023-03-30T22:51:26.511Z,26.80
2023-03-30T22:53:56.756Z,26.34
2023-03-30T22:56:25.958Z,26.63
2023-03-30T22:58:57.954Z,26.45
2023-03-30T23:01:29.354Z,26.86
2023-03-30T23:03:59.743Z,26.89
2023-03-30T23:06:28.612Z,26.55
2023-03-30T23:08:56.921Z,26.82
2023-03-30T23:11:26.511Z,26.84
2023-03-30T23:13:57.087Z,26.49
2023-03-30T23:16:27.815Z,26.64
2023-03-30T23:18:56.222Z,26.84
2023-03-30T23:21:24.791Z,26.70
2023-03-30T23:23:53.063Z,26.69
2023-03-30T23:26:21.552Z,26.86
2023-03-30T23:28:49.793Z,26.96
2023-03-30T23:31:19.944Z,26.61
2023-03-30T23:33:48.161Z,27.00
2023-03-30T23:36:19.320Z,26.61
2023-03-30T23:38:48.192Z,26.42
2023-03-30T23:41:18.577Z,26.33
2023-03-30T23:43:47.624Z,26.44
2023-03-30T23:46:16.421Z,26.47
2023-03-30T23:48:46.091Z,26.29
2023-03-30T23:51:14.559Z,26.47
2023-03-30T23:53:42.820Z,26.68
2023-03-30T23:56:13.335Z,26.19
2023-03-30T23:58:41.777Z,26.33
